sensor_id;sensor_type;location;lat;lon;timestamp;pressure;altitude;pressure_sealevel;temperature;humidity
5283;BME280;15376;48.540;9.268;2024-02-28T00:02:23;97428.91;;;6.82;100.00
5283;BME280;15376;48.540;9.268;2024-02-28T00:04:48;97443.94;;;6.89;100.00
5283;BME280;15376;48.540;9.268;2024-02-28T00:07:14;97450.69;;;6.84;100.00
5283;BME280;15376;48.540;9.268;2024-02-28T00:09:39;97439.97;;;6.77;100.00
5283;BME280;15376;48.540;9.268;2024-02-28T00:12:05;97413.63;;;6.51;100.00
5283;BME280;15376;48.540;9.268;2024-02-28T00:14:30;97447.81;;;6.61;100.00
5283;BME280;15376;48.540;9.268;2024-02-28T00:16:55;97436.69;;;6.49;100.00
5283;BME280;15376;48.540;9.268;2024-02-28T00:19:21;97430.56;;;6.32;100.00
5283;BME280;15376;48.540;9.268;2024-02-28T00:21:47;97451.34;;;6.35;100.00
5283;BME280;15376;48.540;9.268;2024-02-28T00:24:13;97429.84;;;6.22;100.00
5283;BME280;15376;48.540;9.268;2024-02-28T00:26:41;97444.16;;;6.20;100.00
5283;BME280;15376;48.540;9.268;2024-02-28T00:29:07;97433.66;;;6.02;100.00
5283;BME280;15376;48.540;9.268;2024-02-28T00:31:33;97456.09;;;6.06;100.00
5283;BME280;15376;48.540;9.268;2024-02-28T00:33:58;97436.03;;;5.87;100.00
5283;BME280;15376;48.540;9.268;2024-02-28T00:36:23;97450.94;;;5.79;100.00
5283;BME280;15376;48.540;9.268;2024-02-28T00:38:49;97450.50;;;5.65;100.00
5283;BME280;15376;48.540;9.268;2024-02-28T00:41:14;97449.13;;;5.53;100.00
5283;BME280;15376;48.540;9.268;2024-02-28T00:43:39;97439.78;;;5.41;100.00
5283;BME280;15376;48.540;9.268;2024-02-28T00:46:05;97439.34;;;5.28;100.00
5283;BME280;15376;48.540;9.268;2024-02-28T00:48:36;97449.88;;;5.28;100.00
5283;BME280;15376;48.540;9.268;2024-02-28T00:51:01;97454.69;;;5.15;100.00
5283;BME280;15376;48.540;9.268;2024-02-28T00:53:27;97458.91;;;5.08;100.00
5283;BME280;15376;48.540;9.268;2024-02-28T00:55:52;97455.50;;;4.97;100.00
5283;BME280;15376;48.540;9.268;2024-02-28T00:58:18;97455.13;;;4.92;100.00
5283;BME280;15376;48.540;9.268;2024-02-28T01:00:43;97449.31;;;4.89;100.00
5283;BME280;15376;48.540;9.268;2024-02-28T01:03:08;97452.09;;;4.87;100.00
5283;BME280;15376;48.540;9.268;2024-02-28T01:05:36;97470.50;;;4.87;100.00
5283;BME280;15376;48.540;9.268;2024-02-28T01:08:02;97469.09;;;4.75;100.00
5283;BME280;15376;48.540;9.268;2024-02-28T01:10:27;97469.75;;;4.77;100.00
5283;BME280;15376;48.540;9.268;2024-02-28T01:12:52;97456.34;;;4.43;100.00
5283;BME280;15376;48.540;9.268;2024-02-28T01:15:18;97462.63;;;4.32;100.00
5283;BME280;15376;48.540;9.268;2024-02-28T01:17:43;97456.50;;;4.42;100.00
5283;BME280;15376;48.540;9.268;2024-02-28T01:20:09;97456.06;;;4.46;100.00
5283;BME280;15376;48.540;9.268;2024-02-28T01:22:35;97467.84;;;4.42;100.00
5283;BME280;15376;48.540;9.268;2024-02-28T01:25:05;97462.94;;;4.29;100.00
5283;BME280;15376;48.540;9.268;2024-02-28T01:27:30;97462.53;;;4.24;100.00
5283;BME280;15376;48.540;9.268;2024-02-28T01:29:56;97462.13;;;4.19;100.00
5283;BME280;15376;48.540;9.268;2024-02-28T01:32:21;97477.31;;;4.35;100.00
5283;BME280;15376;48.540;9.268;2024-02-28T01:34:47;97463.25;;;4.44;100.00
5283;BME280;15376;48.540;9.268;2024-02-28T01:37:12;97473.44;;;4.57;100.00
5283;BME280;15376;48.540;9.268;2024-02-28T01:39:37;97473.84;;;4.62;100.00
5283;BME280;15376;48.540;9.268;2024-02-28T01:42:03;97481.88;;;4.60;100.00
5283;BME280;15376;48.540;9.268;2024-02-28T01:44:28;97477.59;;;4.59;100.00
5283;BME280;15376;48.540;9.268;2024-02-28T01:46:54;97470.94;;;4.65;100.00
5283;BME280;15376;48.540;9.268;2024-02-28T01:49:22;97476.59;;;4.70;100.00
5283;BME280;15376;48.540;9.268;2024-02-28T01:51:49;97465.66;;;4.65;100.00
5283;BME280;15376;48.540;9.268;2024-02-28T01:54:15;97480.66;;;4.82;100.00
5283;BME280;15376;48.540;9.268;2024-02-28T01:56:41;97477.66;;;4.77;100.00
5283;BME280;15376;48.540;9.268;2024-02-28T01:59:07;97467.63;;;4.63;100.00
5283;BME280;15376;48.540;9.268;2024-02-28T02:01:35;97482.31;;;4.83;100.00
5283;BME280;15376;48.540;9.268;2024-02-28T02:04:01;97483.47;;;4.98;100.00
5283;BME280;15376;48.540;9.268;2024-02-28T02:06:26;97483.03;;;5.03;100.00
5283;BME280;15376;48.540;9.268;2024-02-28T02:08:52;97486.09;;;4.98;100.00
5283;BME280;15376;48.540;9.268;2024-02-28T02:11:17;97493.31;;;4.96;100.00
5283;BME280;15376;48.540;9.268;2024-02-28T02:13:50;97497.31;;;5.00;100.00
5283;BME280;15376;48.540;9.268;2024-02-28T02:16:16;97486.97;;;4.89;100.00
5283;BME280;15376;48.540;9.268;2024-02-28T02:18:42;97499.34;;;5.07;100.00
5283;BME280;15376;48.540;9.268;2024-02-28T02:21:08;97509.28;;;5.13;100.00
5283;BME280;15376;48.540;9.268;2024-02-28T02:23:36;97515.44;;;5.03;100.00
5283;BME280;15376;48.540;9.268;2024-02-28T02:26:06;97477.88;;;4.84;100.00
5283;BME280;15376;48.540;9.268;2024-02-28T02:28:32;97516.81;;;5.08;100.00
5283;BME280;15376;48.540;9.268;2024-02-28T02:30:57;97511.16;;;5.02;100.00
5283;BME280;15376;48.540;9.268;2024-02-28T02:33:22;97504.53;;;4.98;100.00
5283;BME280;15376;48.540;9.268;2024-02-28T02:35:48;97520.56;;;5.23;100.00
5283;BME280;15376;48.540;9.268;2024-02-28T02:38:13;97504.63;;;5.07;100.00
5283;BME280;15376;48.540;9.268;2024-02-28T02:40:38;97531.41;;;5.20;100.00
5283;BME280;15376;48.540;9.268;2024-02-28T02:43:04;97525.53;;;5.26;100.00
5283;BME280;15376;48.540;9.268;2024-02-28T02:45:29;97533.81;;;5.31;100.00
5283;BME280;15376;48.540;9.268;2024-02-28T02:47:54;97534.34;;;5.34;100.00
5283;BME280;15376;48.540;9.268;2024-02-28T02:50:20;97536.25;;;5.42;100.00
5283;BME280;15376;48.540;9.268;2024-02-28T02:52:45;97521.72;;;5.38;100.00
5283;BME280;15376;48.540;9.268;2024-02-28T02:55:11;97536.19;;;5.52;100.00
5283;BME280;15376;48.540;9.268;2024-02-28T02:57:36;97517.72;;;5.34;100.00
5283;BME280;15376;48.540;9.268;2024-02-28T03:00:01;97532.94;;;5.40;100.00
5283;BME280;15376;48.540;9.268;2024-02-28T03:02:27;97541.59;;;5.50;100.00
5283;BME280;15376;48.540;9.268;2024-02-28T03:04:52;97544.81;;;5.44;100.00
5283;BME280;15376;48.540;9.268;2024-02-28T03:07:17;97553.16;;;5.40;100.00
5283;BME280;15376;48.540;9.268;2024-02-28T03:09:43;97559.84;;;5.34;100.00
5283;BME280;15376;48.540;9.268;2024-02-28T03:12:08;97540.44;;;5.17;100.00
5283;BME280;15376;48.540;9.268;2024-02-28T03:14:35;97542.59;;;5.22;100.00
5283;BME280;15376;48.540;9.268;2024-02-28T03:17:00;97562.88;;;5.39;100.00
5283;BME280;15376;48.540;9.268;2024-02-28T03:19:25;97574.09;;;5.41;100.00
5283;BME280;15376;48.540;9.268;2024-02-28T03:21:51;97571.00;;;5.46;100.00
5283;BME280;15376;48.540;9.268;2024-02-28T03:24:16;97570.34;;;5.44;100.00
5283;BME280;15376;48.540;9.268;2024-02-28T03:26:42;97574.47;;;5.46;100.00
5283;BME280;15376;48.540;9.268;2024-02-28T03:29:08;97578.72;;;5.57;100.00
5283;BME280;15376;48.540;9.268;2024-02-28T03:31:33;97574.78;;;5.43;100.00
5283;BME280;15376;48.540;9.268;2024-02-28T03:33:59;97585.25;;;5.53;100.00
5283;BME280;15376;48.540;9.268;2024-02-28T03:36:24;97588.41;;;5.56;100.00
5283;BME280;15376;48.540;9.268;2024-02-28T03:38:50;97587.09;;;5.60;100.00
5283;BME280;15376;48.540;9.268;2024-02-28T03:41:15;97579.59;;;5.65;100.00
5283;BME280;15376;48.540;9.268;2024-02-28T03:43:40;97587.88;;;5.70;100.00
5283;BME280;15376;48.540;9.268;2024-02-28T03:46:06;97595.94;;;5.69;100.00
5283;BME280;15376;48.540;9.268;2024-02-28T03:48:31;97595.09;;;5.68;100.00
5283;BME280;15376;48.540;9.268;2024-02-28T03:50:56;97593.28;;;5.69;100.00
5283;BME280;15376;48.540;9.268;2024-02-28T03:53:22;97584.25;;;5.72;100.00
5283;BME280;15376;48.540;9.268;2024-02-28T03:55:47;97578.69;;;5.75;100.00
5283;BME280;15376;48.540;9.268;2024-02-28T03:58:12;97586.69;;;5.83;100.00
5283;BME280;15376;48.540;9.268;2024-02-28T04:00:38;97592.63;;;5.85;100.00
5283;BME280;15376;48.540;9.268;2024-02-28T04:03:04;97587.47;;;5.93;100.00
5283;BME280;15376;48.540;9.268;2024-02-28T04:05:30;97585.22;;;5.98;100.00
5283;BME280;15376;48.540;9.268;2024-02-28T04:07:56;97565.06;;;5.79;100.00
5283;BME280;15376;48.540;9.268;2024-02-28T04:10:21;97589.28;;;5.92;100.00
5283;BME280;15376;48.540;9.268;2024-02-28T04:12:46;97589.97;;;5.94;100.00
5283;BME280;15376;48.540;9.268;2024-02-28T04:15:12;97597.72;;;5.96;100.00
5283;BME280;15376;48.540;9.268;2024-02-28T04:17:38;97568.38;;;5.81;100.00
5283;BME280;15376;48.540;9.268;2024-02-28T04:20:13;97578.22;;;5.89;100.00
5283;BME280;15376;48.540;9.268;2024-02-28T04:22:39;97604.00;;;6.03;100.00
5283;BME280;15376;48.540;9.268;2024-02-28T04:25:05;97604.84;;;6.03;100.00
5283;BME280;15376;48.540;9.268;2024-02-28T04:27:32;97599.13;;;6.08;100.00
5283;BME280;15376;48.540;9.268;2024-02-28T04:29:57;97610.34;;;6.10;100.00
5283;BME280;15376;48.540;9.268;2024-02-28T04:32:22;97604.75;;;6.13;100.00
5283;BME280;15376;48.540;9.268;2024-02-28T04:34:48;97610.63;;;6.07;100.00
5283;BME280;15376;48.540;9.268;2024-02-28T04:37:13;97600.69;;;6.01;100.00
5283;BME280;15376;48.540;9.268;2024-02-28T04:39:40;97615.31;;;6.13;100.00
5283;BME280;15376;48.540;9.268;2024-02-28T04:42:05;97617.94;;;6.13;100.00
5283;BME280;15376;48.540;9.268;2024-02-28T04:44:31;97601.06;;;6.06;100.00
5283;BME280;15376;48.540;9.268;2024-02-28T04:46:56;97615.91;;;6.07;100.00
5283;BME280;15376;48.540;9.268;2024-02-28T04:49:21;97618.56;;;6.07;100.00
5283;BME280;15376;48.540;9.268;2024-02-28T04:51:48;97618.78;;;6.14;100.00
5283;BME280;15376;48.540;9.268;2024-02-28T04:54:13;97623.22;;;6.13;100.00
5283;BME280;15376;48.540;9.268;2024-02-28T04:56:40;97625.84;;;6.13;100.00
5283;BME280;15376;48.540;9.268;2024-02-28T04:59:06;97609.66;;;6.08;100.00
5283;BME280;15376;48.540;9.268;2024-02-28T05:01:31;97629.31;;;6.14;100.00
5283;BME280;15376;48.540;9.268;2024-02-28T05:03:57;97633.75;;;6.13;100.00
5283;BME280;15376;48.540;9.268;2024-02-28T05:06:22;97633.09;;;6.11;100.00
5283;BME280;15376;48.540;9.268;2024-02-28T05:08:47;97637.22;;;6.14;100.00
5283;BME280;15376;48.540;9.268;2024-02-28T05:11:12;97632.25;;;6.11;100.00
5283;BME280;15376;48.540;9.268;2024-02-28T05:13:38;97643.34;;;6.14;100.00
5283;BME280;15376;48.540;9.268;2024-02-28T05:16:03;97635.13;;;6.17;100.00
5283;BME280;15376;48.540;9.268;2024-02-28T05:18:28;97637.22;;;6.14;100.00
5283;BME280;15376;48.540;9.268;2024-02-28T05:20:54;97643.34;;;6.14;100.00
5283;BME280;15376;48.540;9.268;2024-02-28T05:23:20;97648.75;;;6.13;100.00
5283;BME280;15376;48.540;9.268;2024-02-28T05:25:46;97652.22;;;6.13;100.00
5283;BME280;15376;48.540;9.268;2024-02-28T05:28:11;97650.56;;;6.12;100.00
5283;BME280;15376;48.540;9.268;2024-02-28T05:30:37;97645.59;;;6.09;100.00
5283;BME280;15376;48.540;9.268;2024-02-28T05:33:02;97638.66;;;6.08;100.00
5283;BME280;15376;48.540;9.268;2024-02-28T05:35:27;97656.81;;;6.11;100.00
5283;BME280;15376;48.540;9.268;2024-02-28T05:37:53;97662.09;;;6.11;100.00
5283;BME280;15376;48.540;9.268;2024-02-28T05:40:20;97667.06;;;6.14;100.00
5283;BME280;15376;48.540;9.268;2024-02-28T05:42:45;97680.09;;;6.16;100.00
5283;BME280;15376;48.540;9.268;2024-02-28T05:45:10;97676.47;;;6.17;100.00
5283;BME280;15376;48.540;9.268;2024-02-28T05:47:37;97685.22;;;6.17;100.00
5283;BME280;15376;48.540;9.268;2024-02-28T05:50:03;97682.19;;;6.12;100.00
5283;BME280;15376;48.540;9.268;2024-02-28T05:52:28;97682.88;;;6.14;100.00
5283;BME280;15376;48.540;9.268;2024-02-28T05:54:53;97683.63;;;6.07;100.00
5283;BME280;15376;48.540;9.268;2024-02-28T05:57:19;97683.63;;;6.07;100.00
5283;BME280;15376;48.540;9.268;2024-02-28T05:59:44;97700.13;;;6.09;100.00
5283;BME280;15376;48.540;9.268;2024-02-28T06:02:10;97685.38;;;5.98;100.00
5283;BME280;15376;48.540;9.268;2024-02-28T06:04:35;97695.00;;;6.07;100.00
5283;BME280;15376;48.540;9.268;2024-02-28T06:07:00;97687.25;;;6.06;100.00
5283;BME280;15376;48.540;9.268;2024-02-28T06:09:26;97695.00;;;6.07;100.00
5283;BME280;15376;48.540;9.268;2024-02-28T06:11:55;97701.25;;;6.06;100.00
5283;BME280;15376;48.540;9.268;2024-02-28T06:14:20;97684.75;;;6.04;100.00
5283;BME280;15376;48.540;9.268;2024-02-28T06:16:48;97689.00;;;5.97;100.00
5283;BME280;15376;48.540;9.268;2024-02-28T06:19:14;97699.22;;;6.00;100.00
5283;BME280;15376;48.540;9.268;2024-02-28T06:21:39;97710.81;;;6.07;100.00
5283;BME280;15376;48.540;9.268;2024-02-28T06:24:05;97712.78;;;6.05;100.00
5283;BME280;15376;48.540;9.268;2024-02-28T06:26:30;97689.16;;;5.86;100.00
5283;BME280;15376;48.540;9.268;2024-02-28T06:28:57;97721.38;;;6.07;100.00
5283;BME280;15376;48.540;9.268;2024-02-28T06:31:27;97716.38;;;6.04;100.00
5283;BME280;15376;48.540;9.268;2024-02-28T06:33:55;97723.03;;;6.08;100.00
5283;BME280;15376;48.540;9.268;2024-02-28T06:36:20;97719.31;;;6.01;100.00
5283;BME280;15376;48.540;9.268;2024-02-28T06:38:45;97721.31;;;5.99;100.00
5283;BME280;15376;48.540;9.268;2024-02-28T06:41:11;97720.09;;;5.93;100.00
5283;BME280;15376;48.540;9.268;2024-02-28T06:43:36;97737.31;;;6.06;100.00
5283;BME280;15376;48.540;9.268;2024-02-28T06:46:02;97755.03;;;6.13;100.00
5283;BME280;15376;48.540;9.268;2024-02-28T06:48:28;97757.69;;;6.13;100.00
5283;BME280;15376;48.540;9.268;2024-02-28T06:50:54;97753.69;;;6.09;100.00
5283;BME280;15376;48.540;9.268;2024-02-28T06:53:19;97762.13;;;6.13;100.00
5283;BME280;15376;48.540;9.268;2024-02-28T06:55:45;97764.38;;;6.08;100.00
5283;BME280;15376;48.540;9.268;2024-02-28T06:58:13;97774.19;;;6.15;100.00
5283;BME280;15376;48.540;9.268;2024-02-28T07:00:39;97758.84;;;6.01;100.00
5283;BME280;15376;48.540;9.268;2024-02-28T07:03:04;97772.81;;;6.11;100.00
5283;BME280;15376;48.540;9.268;2024-02-28T07:05:29;97782.63;;;6.19;100.00
5283;BME280;15376;48.540;9.268;2024-02-28T07:07:55;97783.63;;;6.18;100.00
5283;BME280;15376;48.540;9.268;2024-02-28T07:10:20;97794.56;;;6.23;100.00
5283;BME280;15376;48.540;9.268;2024-02-28T07:12:45;97770.47;;;6.08;100.00
5283;BME280;15376;48.540;9.268;2024-02-28T07:15:11;97792.59;;;6.25;100.00
5283;BME280;15376;48.540;9.268;2024-02-28T07:17:36;97790.25;;;6.22;100.00
5283;BME280;15376;48.540;9.268;2024-02-28T07:20:02;97789.81;;;6.26;100.00
5283;BME280;15376;48.540;9.268;2024-02-28T07:22:27;97790.25;;;6.22;100.00
5283;BME280;15376;48.540;9.268;2024-02-28T07:24:52;97775.47;;;6.11;100.00
5283;BME280;15376;48.540;9.268;2024-02-28T07:27:18;97788.44;;;6.22;100.00
5283;BME280;15376;48.540;9.268;2024-02-28T07:29:43;97788.44;;;6.22;100.00
5283;BME280;15376;48.540;9.268;2024-02-28T07:32:09;97793.72;;;6.22;100.00
5283;BME280;15376;48.540;9.268;2024-02-28T07:34:34;97770.72;;;6.15;100.00
5283;BME280;15376;48.540;9.268;2024-02-28T07:36:59;97790.34;;;6.30;100.00
5283;BME280;15376;48.540;9.268;2024-02-28T07:39:25;97795.75;;;6.28;100.00
5283;BME280;15376;48.540;9.268;2024-02-28T07:41:50;97800.00;;;6.39;100.00
5283;BME280;15376;48.540;9.268;2024-02-28T07:44:16;97800.16;;;6.38;100.00
5283;BME280;15376;48.540;9.268;2024-02-28T07:46:42;97777.91;;;6.22;100.00
5283;BME280;15376;48.540;9.268;2024-02-28T07:49:08;97805.44;;;6.38;100.00
5283;BME280;15376;48.540;9.268;2024-02-28T07:51:33;97779.66;;;6.31;100.00
5283;BME280;15376;48.540;9.268;2024-02-28T07:53:59;97802.66;;;6.57;100.00
5283;BME280;15376;48.540;9.268;2024-02-28T07:56:24;97805.00;;;6.60;100.00
5283;BME280;15376;48.540;9.268;2024-02-28T07:58:49;97795.13;;;6.62;100.00
5283;BME280;15376;48.540;9.268;2024-02-28T08:01:15;97806.81;;;6.77;100.00
5283;BME280;15376;48.540;9.268;2024-02-28T08:03:42;97804.53;;;6.82;100.00
5283;BME280;15376;48.540;9.268;2024-02-28T08:06:07;97810.44;;;6.76;100.00
5283;BME280;15376;48.540;9.268;2024-02-28T08:08:34;97807.00;;;6.84;100.00
5283;BME280;15376;48.540;9.268;2024-02-28T08:11:00;97799.38;;;6.81;100.00
5283;BME280;15376;48.540;9.268;2024-02-28T08:13:25;97812.28;;;6.84;100.00
5283;BME280;15376;48.540;9.268;2024-02-28T08:15:53;97815.31;;;6.89;100.00
5283;BME280;15376;48.540;9.268;2024-02-28T08:18:19;97822.41;;;6.88;100.00
5283;BME280;15376;48.540;9.268;2024-02-28T08:20:45;97822.16;;;6.82;100.00
5283;BME280;15376;48.540;9.268;2024-02-28T08:23:10;97827.97;;;6.85;100.00
5283;BME280;15376;48.540;9.268;2024-02-28T08:25:35;97835.38;;;6.99;100.00
5283;BME280;15376;48.540;9.268;2024-02-28T08:28:01;97837.50;;;6.78;100.00
5283;BME280;15376;48.540;9.268;2024-02-28T08:30:26;97835.50;;;6.80;100.00
5283;BME280;15376;48.540;9.268;2024-02-28T08:32:51;97837.19;;;6.81;100.00
5283;BME280;15376;48.540;9.268;2024-02-28T08:35:18;97839.31;;;6.78;100.00
5283;BME280;15376;48.540;9.268;2024-02-28T08:37:44;97844.28;;;6.63;100.00
5283;BME280;15376;48.540;9.268;2024-02-28T08:40:10;97831.66;;;6.57;100.00
5283;BME280;15376;48.540;9.268;2024-02-28T08:42:36;97837.63;;;6.59;100.00
5283;BME280;15376;48.540;9.268;2024-02-28T08:45:02;97844.28;;;6.63;100.00
5283;BME280;15376;48.540;9.268;2024-02-28T08:47:29;97817.13;;;6.53;100.00
5283;BME280;15376;48.540;9.268;2024-02-28T08:49:54;97839.38;;;6.68;100.00
5283;BME280;15376;48.540;9.268;2024-02-28T08:52:20;97831.06;;;6.63;100.00
5283;BME280;15376;48.540;9.268;2024-02-28T08:54:46;97825.13;;;6.61;100.00
5283;BME280;15376;48.540;9.268;2024-02-28T08:57:13;97839.66;;;6.83;100.00
5283;BME280;15376;48.540;9.268;2024-02-28T08:59:42;97847.81;;;6.89;100.00
5283;BME280;15376;48.540;9.268;2024-02-28T09:02:08;97828.66;;;6.69;100.00
5283;BME280;15376;48.540;9.268;2024-02-28T09:04:34;97840.63;;;6.82;100.00
5283;BME280;15376;48.540;9.268;2024-02-28T09:06:59;97841.47;;;6.82;100.00
5283;BME280;15376;48.540;9.268;2024-02-28T09:09:26;97850.56;;;6.80;100.00
5283;BME280;15376;48.540;9.268;2024-02-28T09:11:51;97849.72;;;6.79;100.00
5283;BME280;15376;48.540;9.268;2024-02-28T09:14:16;97832.81;;;6.72;100.00
5283;BME280;15376;48.540;9.268;2024-02-28T09:16:42;97860.56;;;6.76;100.00
5283;BME280;15376;48.540;9.268;2024-02-28T09:19:07;97854.31;;;6.77;100.00
5283;BME280;15376;48.540;9.268;2024-02-28T09:21:33;97856.03;;;6.86;100.00
5283;BME280;15376;48.540;9.268;2024-02-28T09:23:58;97862.22;;;6.95;100.00
5283;BME280;15376;48.540;9.268;2024-02-28T09:26:24;97857.78;;;6.95;100.00
5283;BME280;15376;48.540;9.268;2024-02-28T09:28:49;97863.50;;;6.91;100.00
5283;BME280;15376;48.540;9.268;2024-02-28T09:31:17;97834.75;;;6.88;100.00
5283;BME280;15376;48.540;9.268;2024-02-28T09:33:43;97842.63;;;6.97;100.00
5283;BME280;15376;48.540;9.268;2024-02-28T09:36:10;97861.09;;;6.97;100.00
5283;BME280;15376;48.540;9.268;2024-02-28T09:38:36;97847.72;;;6.81;100.00
5283;BME280;15376;48.540;9.268;2024-02-28T09:41:02;97871.88;;;6.86;100.00
5283;BME280;15376;48.540;9.268;2024-02-28T09:43:32;97872.16;;;6.83;100.00
5283;BME280;15376;48.540;9.268;2024-02-28T09:46:05;97867.81;;;6.74;100.00
5283;BME280;15376;48.540;9.268;2024-02-28T09:48:31;97875.78;;;6.82;100.00
5283;BME280;15376;48.540;9.268;2024-02-28T09:50:57;97852.56;;;6.68;100.00
5283;BME280;15376;48.540;9.268;2024-02-28T09:53:22;97856.44;;;6.74;100.00
5283;BME280;15376;48.540;9.268;2024-02-28T09:55:49;97880.84;;;6.76;100.00
5283;BME280;15376;48.540;9.268;2024-02-28T09:58:15;97883.41;;;6.85;100.00
5283;BME280;15376;48.540;9.268;2024-02-28T10:00:42;97887.94;;;6.93;100.00
5283;BME280;15376;48.540;9.268;2024-02-28T10:03:11;97879.56;;;6.97;100.00
5283;BME280;15376;48.540;9.268;2024-02-28T10:05:38;97873.47;;;6.97;100.00
5283;BME280;15376;48.540;9.268;2024-02-28T10:08:05;97869.31;;;6.94;100.00
5283;BME280;15376;48.540;9.268;2024-02-28T10:10:30;97896.41;;;7.14;100.00
5283;BME280;15376;48.540;9.268;2024-02-28T10:12:56;97893.31;;;7.19;100.00
5283;BME280;15376;48.540;9.268;2024-02-28T10:15:21;97893.25;;;7.11;100.00
5283;BME280;15376;48.540;9.268;2024-02-28T10:17:47;97895.31;;;7.25;100.00
5283;BME280;15376;48.540;9.268;2024-02-28T10:20:13;97894.88;;;7.29;100.00
5283;BME280;15376;48.540;9.268;2024-02-28T10:22:39;97889.31;;;7.15;100.00
5283;BME280;15376;48.540;9.268;2024-02-28T10:25:05;97882.91;;;6.99;100.00
5283;BME280;15376;48.540;9.268;2024-02-28T10:27:34;97900.34;;;7.10;100.00
5283;BME280;15376;48.540;9.268;2024-02-28T10:30:00;97896.53;;;7.30;100.00
5283;BME280;15376;48.540;9.268;2024-02-28T10:32:30;97892.03;;;7.05;100.00
5283;BME280;15376;48.540;9.268;2024-02-28T10:34:56;97891.59;;;7.10;100.00
5283;BME280;15376;48.540;9.268;2024-02-28T10:37:23;97891.09;;;7.32;100.00
5283;BME280;15376;48.540;9.268;2024-02-28T10:39:51;97906.44;;;7.28;100.00
5283;BME280;15376;48.540;9.268;2024-02-28T10:42:18;97894.34;;;7.26;100.00
5283;BME280;15376;48.540;9.268;2024-02-28T10:44:44;97890.34;;;7.40;100.00
5283;BME280;15376;48.540;9.268;2024-02-28T10:47:10;97913.81;;;7.25;100.00
5283;BME280;15376;48.540;9.268;2024-02-28T10:49:36;97918.06;;;7.18;100.00
5283;BME280;15376;48.540;9.268;2024-02-28T10:52:03;97925.44;;;7.32;100.00
5283;BME280;15376;48.540;9.268;2024-02-28T10:54:29;97914.44;;;7.36;100.00
5283;BME280;15376;48.540;9.268;2024-02-28T10:56:57;97906.81;;;7.33;100.00
5283;BME280;15376;48.540;9.268;2024-02-28T10:59:25;97922.28;;;7.46;100.00
5283;BME280;15376;48.540;9.268;2024-02-28T11:01:50;97904.63;;;7.29;100.00
5283;BME280;15376;48.540;9.268;2024-02-28T11:04:17;97936.53;;;7.53;100.00
5283;BME280;15376;48.540;9.268;2024-02-28T11:06:54;97926.34;;;7.58;100.00
5283;BME280;15376;48.540;9.268;2024-02-28T11:09:20;97920.03;;;7.77;100.00
5283;BME280;15376;48.540;9.268;2024-02-28T11:11:51;97925.81;;;7.98;100.00
5283;BME280;15376;48.540;9.268;2024-02-28T11:14:16;97911.19;;;7.68;100.00
5283;BME280;15376;48.540;9.268;2024-02-28T11:16:44;97929.31;;;7.81;100.00
5283;BME280;15376;48.540;9.268;2024-02-28T11:19:22;97918.75;;;7.63;100.00
5283;BME280;15376;48.540;9.268;2024-02-28T11:21:53;97924.59;;;7.93;100.00
5283;BME280;15376;48.540;9.268;2024-02-28T11:24:29;97902.09;;;7.89;100.00
5283;BME280;15376;48.540;9.268;2024-02-28T11:26:55;97899.41;;;7.81;100.00
5283;BME280;15376;48.540;9.268;2024-02-28T11:29:28;97912.00;;;7.87;100.00
5283;BME280;15376;48.540;9.268;2024-02-28T11:31:56;97920.13;;;8.19;100.00
5283;BME280;15376;48.540;9.268;2024-02-28T11:34:22;97922.31;;;8.24;100.00
5283;BME280;15376;48.540;9.268;2024-02-28T11:36:48;97920.00;;;8.29;100.00
5283;BME280;15376;48.540;9.268;2024-02-28T11:39:14;97921.94;;;8.19;100.00
5283;BME280;15376;48.540;9.268;2024-02-28T11:41:40;97929.19;;;8.34;100.00
5283;BME280;15376;48.540;9.268;2024-02-28T11:44:05;97919.94;;;8.39;100.00
5283;BME280;15376;48.540;9.268;2024-02-28T11:46:31;97926.91;;;8.22;100.00
5283;BME280;15376;48.540;9.268;2024-02-28T11:48:56;97931.63;;;8.10;100.00
5283;BME280;15376;48.540;9.268;2024-02-28T11:51:22;97927.69;;;8.14;100.00
5283;BME280;15376;48.540;9.268;2024-02-28T11:53:48;97937.25;;;7.81;100.00
5283;BME280;15376;48.540;9.268;2024-02-28T11:56:13;97934.44;;;7.83;100.00
5283;BME280;15376;48.540;9.268;2024-02-28T11:58:53;97933.47;;;7.84;100.00
5283;BME280;15376;48.540;9.268;2024-02-28T12:01:40;97938.06;;;7.82;100.00
5283;BME280;15376;48.540;9.268;2024-02-28T12:04:04;97939.59;;;7.84;100.00
5283;BME280;15376;48.540;9.268;2024-02-28T12:06:31;97927.75;;;7.70;100.00
5283;BME280;15376;48.540;9.268;2024-02-28T12:08:56;97923.94;;;7.47;100.00
5283;BME280;15376;48.540;9.268;2024-02-28T12:11:24;97911.78;;;7.54;100.00
5283;BME280;15376;48.540;9.268;2024-02-28T12:13:54;97901.56;;;7.59;100.00
5283;BME280;15376;48.540;9.268;2024-02-28T12:16:25;97924.78;;;7.74;100.00
5283;BME280;15376;48.540;9.268;2024-02-28T12:18:51;97920.91;;;7.42;100.00
5283;BME280;15376;48.540;9.268;2024-02-28T12:21:17;97917.00;;;7.46;100.00
5283;BME280;15376;48.540;9.268;2024-02-28T12:23:42;97927.63;;;7.36;100.00
5283;BME280;15376;48.540;9.268;2024-02-28T12:26:07;97913.75;;;7.34;100.00
5283;BME280;15376;48.540;9.268;2024-02-28T12:28:33;97886.19;;;7.37;100.00
5283;BME280;15376;48.540;9.268;2024-02-28T12:30:58;97914.72;;;7.51;100.00
5283;BME280;15376;48.540;9.268;2024-02-28T12:33:23;97898.28;;;7.22;100.00
5283;BME280;15376;48.540;9.268;2024-02-28T12:35:48;97916.53;;;7.33;100.00
5283;BME280;15376;48.540;9.268;2024-02-28T12:38:14;97921.16;;;7.49;100.00
5283;BME280;15376;48.540;9.268;2024-02-28T12:40:40;97925.59;;;7.48;100.00
5283;BME280;15376;48.540;9.268;2024-02-28T12:43:07;97900.38;;;7.36;100.00
5283;BME280;15376;48.540;9.268;2024-02-28T12:45:33;97917.38;;;7.51;100.00
5283;BME280;15376;48.540;9.268;2024-02-28T12:47:59;97921.59;;;7.44;100.00
5283;BME280;15376;48.540;9.268;2024-02-28T12:50:26;97915.94;;;7.39;100.00
5283;BME280;15376;48.540;9.268;2024-02-28T12:52:52;97902.28;;;7.26;100.00
5283;BME280;15376;48.540;9.268;2024-02-28T12:55:19;97915.63;;;7.42;100.00
5283;BME280;15376;48.540;9.268;2024-02-28T12:57:45;97910.03;;;7.45;100.00
5283;BME280;15376;48.540;9.268;2024-02-28T13:00:11;97914.88;;;7.50;100.00
5283;BME280;15376;48.540;9.268;2024-02-28T13:02:36;97916.13;;;7.63;100.00
5283;BME280;15376;48.540;9.268;2024-02-28T13:05:02;97888.28;;;7.51;100.00